Página principal
METAR-TAF:

METAR-TAF

Aeroportos :

Aeroporto de Gran Canária

Gran Canária, Espanha

latitude: 27-56N, longitude: 015-23W, altura: 23 m

Observação actual do tempo

O boletim foi feito há 33 minutos, às 02:30 UTC
Vento 9 kt de norte
Temperatura 19°C
Humidade 78%
Pressão 1025 hPa
Visibilidade 10 km ou mais
Poucas nuvensa uma altura de 3000 ft

METAR: GCLP 140230Z 35009KT 9999 FEW030 19/15 Q1025 NOSIG

Hora: 03:03 (03:03 UTC)

Previsão

O boletim foi feito há 1 hora e 3 minutos, às 02:00 UTC
Previsão válida de 14 às 03 UTC a 15 às 03 UTC
Vento 12 kt de norte
Visibilidade 10 km ou mais
Nuvens dispersasa uma altura de 2500 ft

TAF: GCLP 140200Z 1403/1503 36012KT 9999 SCT025 TX22/1413Z TN18/1406Z

Observações e previsões do tempo de mais de 4000 aeroportos (mensagens METAR e TAF).

As estações disponíveis são os pontos amarelos e vermelhos sobre o mapa.

Mova o rato sobre o mapa para ver o nome da estação.

Depois clique no ponto para visualizar as observações e previsões meteorológicas.

Para alterar o mapa : clique nos botões verdes com uma cruz preta para aumentar o zoom; no botão verde com uma pitada de zoom; ou nas setas verdes para mapas adjacentes.


METAR-TAF: